KGTF/GTF METAR and TAF weather

Enter ICAO airport designator
Station Type Date Time Source
KGTF METAR 2022/01/27 22:53 UTC NOAA

KGTF 272253Z 22018G25KT 10SM CLR 03/M08 A3029


Station Type Date Time Source
KGTF Decoded METAR 2022/01/27 22:53 UTC NOAA

GREAT FALLS INTERNATIONAL, MT, United States (KGTF) 47-28N 111-23W 1119M
Jan 27, 2022 - 05:53 PM EST / 2022.01.27 2253 UTC
Wind: from the SW (220 degrees) at 21 MPH (18 KT) gusting to 29 MPH (25 KT):0
Visibility: 10 mile(s):0
Sky conditions: clear
Temperature: 37 F (3 C)
Dew Point: 17 F (-8 C)
Relative Humidity: 44%
Pressure (altimeter): 30.29 in. Hg (1025 hPa)
ob: KGTF 272253Z 22018G25KT 10SM CLR 03/M08 A3029
cycle: 23

Station Type Date Time Source
KGTF TAF 2022/01/27 18:22 UTC NOAA

TAF KGTF 271720Z 2718/2818 22014G23KT P6SM FEW250
FM272100 23019G30KT P6SM FEW250

Example: see airport list